Portada
METAR-TAF:

METAR-TAF

Aeropuertos :

Paganella, Italia

latitud: 46-09N, longitud: 011-02E, altitud: 2125 m

Observación

El informe se hizo hace 1 hora y 18 minutos, a las 09:55 UTC
Viento 10 kt del norte
Temperatura -8°C
Humedad 34%
Presión 1013 hPa
Visibilidad 10 km o más
Escasas nubes a una altura de 300 ft

METAR: LIVP 310955Z 36010KT 9999 FEW003 M08/M21 Q1013 RMK SCT SCT060 MON LIB VAL NIL VIS MIN 9999

Hora: 13:13 (11:13 UTC)


TAF: falta

Observaciones y pronósticos meteorológicos de más de 4000 aeropuertos (mensajes METAR y TAF).

Los puntos amarillos y rojos representan las estaciones disponibles.

Ponga el ratón en el punto deseado para ver el nombre de la estación.

Haga clic para ver las observaciones y los pronósticos meteorológicos.

Para cambiar el mapa : haga clic en los botones verdes con una cruz de color negro para hacer un zoom, en el botón verde con un guión para alejar o en las flechas verdes para mapas adyacentes.


METAR-TAF: